createdAt,value
2023-03-23T16:01:51.837Z,7.07
2023-03-23T16:04:20.763Z,7.18
2023-03-23T16:06:48.154Z,7.40
2023-03-23T16:09:17.429Z,7.20
2023-03-23T16:11:44.425Z,7.03
2023-03-23T16:14:11.671Z,7.70
2023-03-23T16:16:50.673Z,6.90
2023-03-23T16:19:20.432Z,7.53
2023-03-23T16:21:47.616Z,7.22
2023-03-23T16:24:14.449Z,8.18
2023-03-23T16:26:41.310Z,8.00
2023-03-23T16:29:33.916Z,8.35
2023-03-23T16:32:04.464Z,8.75
2023-03-23T16:34:33.873Z,9.50
2023-03-23T16:37:01.053Z,8.75
2023-03-23T16:39:28.143Z,8.80
2023-03-23T16:41:55.044Z,9.60
2023-03-23T16:44:21.917Z,9.77
2023-03-23T16:46:48.739Z,10.50
2023-03-23T16:49:16.162Z,11.10
2023-03-23T16:51:43.171Z,10.57
2023-03-23T16:54:10.840Z,10.45
2023-03-23T16:56:38.381Z,10.90
2023-03-23T16:59:05.475Z,10.77
2023-03-23T17:01:32.323Z,10.20
2023-03-23T17:03:59.269Z,10.60
2023-03-23T17:06:26.109Z,10.50
2023-03-23T17:08:52.940Z,16.10
2023-03-23T17:11:19.757Z,34.22
2023-03-23T17:13:46.645Z,25.88
2023-03-23T17:16:13.518Z,20.60
2023-03-23T17:18:40.408Z,16.77
2023-03-23T17:21:07.722Z,14.13
2023-03-23T17:23:34.756Z,16.52
2023-03-23T17:26:01.856Z,17.27
2023-03-23T17:28:28.921Z,21.83
2023-03-23T17:30:55.890Z,22.20
2023-03-23T17:33:22.781Z,22.85
2023-03-23T17:35:52.084Z,22.08
2023-03-23T17:38:19.825Z,18.30
2023-03-23T17:40:46.715Z,15.95
2023-03-23T17:43:13.704Z,15.27
2023-03-23T17:45:43.083Z,16.88
2023-03-23T17:48:11.261Z,16.70
2023-03-23T17:50:38.304Z,17.35
2023-03-23T17:53:05.573Z,16.38
2023-03-23T17:55:32.657Z,16.80
2023-03-23T17:57:59.593Z,14.65
2023-03-23T18:00:26.520Z,15.93
2023-03-23T18:02:53.526Z,15.95
2023-03-23T18:05:20.620Z,18.38
2023-03-23T18:07:47.491Z,20.85
2023-03-23T18:10:14.597Z,20.45
2023-03-23T18:12:42.570Z,19.85
2023-03-23T18:15:10.452Z,18.88
2023-03-23T18:17:37.711Z,18.63
2023-03-23T18:20:06.977Z,18.63
2023-03-23T18:22:33.857Z,23.30
2023-03-23T18:25:02.733Z,25.88
2023-03-23T18:27:29.717Z,28.45
2023-03-23T18:29:56.562Z,28.13
2023-03-23T18:32:23.437Z,29.27
2023-03-23T18:34:50.582Z,33.03
2023-03-23T18:37:17.696Z,29.98
2023-03-23T18:39:44.525Z,29.25
2023-03-23T18:42:11.494Z,28.23
2023-03-23T18:44:38.322Z,29.05
2023-03-23T18:47:05.556Z,28.60
2023-03-23T18:49:33.596Z,30.02
2023-03-23T18:52:01.176Z,23.48
2023-03-23T18:54:29.450Z,21.45
2023-03-23T18:57:00.236Z,29.30
2023-03-23T18:59:30.548Z,26.17
2023-03-23T19:01:58.029Z,20.92
2023-03-23T19:04:25.268Z,21.15
2023-03-23T19:06:52.439Z,22.85
2023-03-23T19:09:19.343Z,22.83
2023-03-23T19:11:47.331Z,24.30
2023-03-23T19:14:14.859Z,25.85
2023-03-23T19:16:42.134Z,30.92
2023-03-23T19:19:09.632Z,31.27
2023-03-23T19:21:37.883Z,26.60
2023-03-23T19:24:07.412Z,25.50
2023-03-23T19:26:40.606Z,24.88
2023-03-23T19:29:26.294Z,27.40
2023-03-23T19:31:55.010Z,27.80
2023-03-23T19:34:22.156Z,25.70
2023-03-23T19:36:55.142Z,30.42
2023-03-23T19:39:30.413Z,31.52
2023-03-23T19:41:57.376Z,30.45
2023-03-23T19:44:25.186Z,27.83
2023-03-23T19:46:53.200Z,26.30
2023-03-23T19:49:20.159Z,24.92
2023-03-23T19:51:47.076Z,24.25
2023-03-23T19:54:14.119Z,23.10
2023-03-23T19:56:41.528Z,28.80
2023-03-23T19:59:11.582Z,29.05
2023-03-23T20:01:38.494Z,25.95
2023-03-23T20:04:06.999Z,13.23
2023-03-23T20:06:35.792Z,12.25
2023-03-23T20:09:05.109Z,13.55
2023-03-23T20:11:33.589Z,11.60
2023-03-23T20:14:01.526Z,11.82
2023-03-23T20:16:29.171Z,13.02
2023-03-23T20:18:59.889Z,13.05
2023-03-23T20:21:27.967Z,13.05
2023-03-23T20:23:57.068Z,14.63
2023-03-23T20:26:27.322Z,15.23
2023-03-23T20:28:54.726Z,13.68
2023-03-23T20:31:28.094Z,13.98
2023-03-23T20:34:02.703Z,14.05
2023-03-23T20:36:36.025Z,14.70
2023-03-23T20:39:15.030Z,14.35
2023-03-23T20:41:43.581Z,14.93
2023-03-23T20:44:16.194Z,14.90
2023-03-23T20:46:45.937Z,15.90
2023-03-23T20:49:14.029Z,15.85
2023-03-23T20:51:41.102Z,18.30
2023-03-23T20:54:08.087Z,18.38
2023-03-23T20:56:35.676Z,17.40
2023-03-23T20:59:03.375Z,14.45
2023-03-23T21:01:33.202Z,18.13
2023-03-23T21:04:00.546Z,17.85
2023-03-23T21:06:29.113Z,20.00
2023-03-23T21:08:57.536Z,21.88
2023-03-23T21:11:26.098Z,18.27
2023-03-23T21:13:53.562Z,17.13
2023-03-23T21:16:21.021Z,17.27
2023-03-23T21:18:48.204Z,15.80
2023-03-23T21:21:18.451Z,10.52
2023-03-23T21:23:47.612Z,11.65
2023-03-23T21:26:16.986Z,15.05
2023-03-23T21:28:45.299Z,15.45
2023-03-23T21:31:12.548Z,15.32
2023-03-23T21:33:39.481Z,15.77
2023-03-23T21:36:07.136Z,16.00
2023-03-23T21:38:34.241Z,16.35
2023-03-23T21:41:08.326Z,15.30
2023-03-23T21:43:36.202Z,15.50
2023-03-23T21:46:06.037Z,15.60
2023-03-23T21:48:35.686Z,14.60
2023-03-23T21:51:07.745Z,13.32
2023-03-23T21:56:06.501Z,13.20
2023-03-23T21:58:33.937Z,12.45
2023-03-23T22:01:02.211Z,11.82
2023-03-23T22:03:34.822Z,10.32
2023-03-23T22:06:28.321Z,10.63
2023-03-23T22:08:56.320Z,10.73
2023-03-23T22:11:26.345Z,10.02
2023-03-23T22:13:54.958Z,9.93
2023-03-23T22:16:22.613Z,9.13
2023-03-23T22:18:51.411Z,8.93
2023-03-23T22:21:20.193Z,9.40
2023-03-23T22:23:47.126Z,9.20
2023-03-23T22:26:16.579Z,10.27
2023-03-23T22:28:45.780Z,9.68
2023-03-23T22:31:18.856Z,10.07
2023-03-23T22:33:47.929Z,11.07
2023-03-23T22:36:16.105Z,10.43
2023-03-23T22:38:45.207Z,9.73
2023-03-23T22:41:25.146Z,9.23
2023-03-23T22:43:52.285Z,9.05
2023-03-23T22:46:19.518Z,9.48
2023-03-23T22:48:46.912Z,9.60
2023-03-23T22:51:16.535Z,8.38
2023-03-23T22:53:43.910Z,8.70
2023-03-23T22:56:11.216Z,8.70
2023-03-23T22:58:38.573Z,8.68
2023-03-23T23:01:12.415Z,9.38
2023-03-23T23:03:40.289Z,9.02
2023-03-23T23:06:07.925Z,8.90
2023-03-23T23:08:34.973Z,9.35
2023-03-23T23:11:02.908Z,8.43
2023-03-23T23:13:31.951Z,8.63
2023-03-23T23:16:02.209Z,7.78
2023-03-23T23:18:31.070Z,8.27
2023-03-23T23:20:59.916Z,8.93
2023-03-23T23:23:28.337Z,9.25
2023-03-23T23:25:55.280Z,9.57
2023-03-23T23:28:23.012Z,9.35
2023-03-23T23:30:50.993Z,9.82
2023-03-23T23:33:19.019Z,9.55
2023-03-23T23:35:46.770Z,9.60
2023-03-23T23:38:14.406Z,8.50
2023-03-23T23:40:43.064Z,8.57
2023-03-23T23:43:16.943Z,8.23
2023-03-23T23:45:44.358Z,7.75
2023-03-23T23:48:12.569Z,7.88
2023-03-23T23:50:39.464Z,8.40
2023-03-23T23:53:06.383Z,8.52
2023-03-23T23:55:33.335Z,8.48
2023-03-23T23:58:00.468Z,7.93
